createdAt,value
2018-03-25T00:00:17.973Z,25.50
2018-03-25T00:01:17.969Z,26.10
2018-03-25T00:02:17.948Z,25.20
2018-03-25T00:03:17.944Z,26.20
2018-03-25T00:04:17.935Z,25.20
2018-03-25T00:05:17.927Z,25.60
2018-03-25T00:06:17.953Z,24.50
2018-03-25T00:07:17.932Z,26.50
2018-03-25T00:08:17.906Z,25.10
2018-03-25T00:09:17.899Z,28.90
2018-03-25T00:10:17.892Z,29.60
2018-03-25T00:11:17.884Z,28.70
2018-03-25T00:12:17.877Z,29.40
2018-03-25T00:13:17.980Z,29.40
2018-03-25T00:14:17.863Z,28.80
2018-03-25T00:15:17.869Z,28.30
2018-03-25T00:16:17.849Z,28.80
2018-03-25T00:17:17.841Z,29.30
2018-03-25T00:18:17.846Z,28.60
2018-03-25T00:19:17.830Z,28.10
2018-03-25T00:20:17.820Z,28.20
2018-03-25T00:21:17.813Z,27.60
2018-03-25T00:22:17.831Z,27.30
2018-03-25T00:23:17.817Z,27.30
2018-03-25T00:24:17.792Z,28.20
2018-03-25T00:25:17.785Z,28.60
2018-03-25T00:26:17.779Z,28.70
2018-03-25T00:27:17.779Z,28.10
2018-03-25T00:28:17.764Z,28.50
2018-03-25T00:29:17.765Z,26.90
2018-03-25T00:30:17.760Z,27.60
2018-03-25T00:31:17.753Z,28.60
2018-03-25T00:32:17.738Z,28.20
2018-03-25T00:33:17.760Z,28.40
2018-03-25T00:34:17.722Z,28.00
2018-03-25T00:35:17.730Z,29.00
2018-03-25T00:36:17.728Z,27.50
2018-03-25T00:37:17.722Z,27.60
2018-03-25T00:38:17.692Z,29.10
2018-03-25T00:39:17.689Z,28.50
2018-03-25T00:40:17.680Z,27.50
2018-03-25T00:41:17.681Z,28.20
2018-03-25T00:42:17.668Z,28.10
2018-03-25T00:43:17.656Z,27.00
2018-03-25T00:44:17.649Z,29.20
2018-03-25T00:45:17.643Z,27.90
2018-03-25T00:46:17.636Z,27.70
2018-03-25T00:47:17.629Z,27.50
2018-03-25T00:48:17.621Z,27.10
2018-03-25T00:49:17.619Z,27.80
2018-03-25T00:50:17.645Z,27.50
2018-03-25T00:51:17.599Z,27.00
2018-03-25T00:52:17.592Z,27.10
2018-03-25T00:53:17.586Z,28.30
2018-03-25T00:54:17.577Z,27.60
2018-03-25T00:55:17.574Z,27.80
2018-03-25T00:56:17.567Z,28.10
2018-03-25T00:57:17.556Z,26.90
2018-03-25T00:58:17.563Z,27.20
2018-03-25T00:59:17.562Z,26.90
2018-03-25T01:00:17.537Z,27.60
2018-03-25T01:01:17.527Z,28.20
2018-03-25T01:02:17.520Z,26.80
2018-03-25T01:03:17.516Z,27.30
2018-03-25T01:04:17.506Z,27.20
2018-03-25T01:05:17.498Z,27.40
2018-03-25T01:06:17.507Z,27.20
2018-03-25T01:07:17.484Z,26.60
2018-03-25T01:08:17.476Z,27.30
2018-03-25T01:09:17.469Z,26.30
2018-03-25T01:10:17.476Z,26.10
2018-03-25T01:11:17.455Z,26.30
2018-03-25T01:12:17.468Z,26.40
2018-03-25T01:13:17.447Z,26.50
2018-03-25T01:14:17.452Z,26.10
2018-03-25T01:15:17.430Z,27.30
2018-03-25T01:16:17.419Z,26.80
2018-03-25T01:17:17.414Z,27.10
2018-03-25T01:18:17.405Z,27.20
2018-03-25T01:19:17.397Z,26.80
2018-03-25T01:20:17.392Z,27.10
2018-03-25T01:21:17.392Z,27.90
2018-03-25T01:22:17.393Z,27.50
2018-03-25T01:23:17.369Z,27.10
2018-03-25T01:24:17.362Z,27.80
2018-03-25T01:25:17.360Z,27.90
2018-03-25T01:26:17.347Z,28.10
2018-03-25T01:27:17.339Z,27.40
2018-03-25T01:28:17.332Z,26.60
2018-03-25T01:29:17.327Z,25.80
2018-03-25T01:30:17.319Z,26.20
2018-03-25T01:31:17.310Z,26.70
2018-03-25T01:32:17.305Z,27.40
2018-03-25T01:33:17.296Z,26.60
2018-03-25T01:34:17.290Z,26.60
2018-03-25T01:35:17.283Z,27.30
2018-03-25T01:36:17.275Z,26.40
2018-03-25T01:37:17.269Z,26.90
2018-03-25T01:38:17.260Z,27.60
2018-03-25T01:39:17.252Z,27.30
2018-03-25T01:40:17.245Z,27.00
2018-03-25T01:41:17.237Z,27.20
2018-03-25T01:42:17.239Z,26.80
2018-03-25T01:43:17.221Z,27.00
2018-03-25T01:44:17.216Z,27.80
2018-03-25T01:45:17.207Z,27.40
2018-03-25T01:46:17.200Z,28.40
2018-03-25T01:47:17.192Z,27.10
2018-03-25T01:48:17.185Z,27.20
2018-03-25T01:49:17.177Z,27.10
2018-03-25T01:50:17.172Z,27.40
2018-03-25T01:51:17.162Z,27.00
2018-03-25T01:52:17.155Z,26.80
2018-03-25T01:53:17.150Z,27.90
2018-03-25T01:54:17.140Z,27.10
2018-03-25T01:55:17.131Z,27.60
2018-03-25T01:56:17.124Z,26.90
2018-03-25T01:57:17.117Z,26.80
2018-03-25T01:58:17.110Z,27.00
2018-03-25T01:59:17.102Z,27.90
2018-03-25T02:00:17.092Z,28.50
2018-03-25T02:01:17.089Z,27.30
2018-03-25T02:02:17.079Z,27.00
2018-03-25T02:03:17.071Z,26.80
2018-03-25T02:04:17.064Z,27.90
2018-03-25T02:05:17.056Z,28.00
2018-03-25T02:06:17.058Z,27.80
2018-03-25T02:07:17.040Z,26.40
2018-03-25T02:08:17.033Z,27.60
2018-03-25T02:09:17.026Z,26.90
2018-03-25T02:10:17.019Z,26.50
2018-03-25T02:11:17.014Z,27.90
2018-03-25T02:12:17.020Z,27.70
2018-03-25T02:13:16.994Z,27.70
2018-03-25T02:14:16.987Z,27.30
2018-03-25T02:15:16.978Z,28.20
2018-03-25T02:16:16.971Z,27.50
2018-03-25T02:17:16.963Z,27.40
2018-03-25T02:18:16.957Z,27.30
2018-03-25T02:19:17.047Z,28.00
2018-03-25T02:20:16.941Z,27.60
2018-03-25T02:21:16.932Z,27.70
2018-03-25T02:22:16.924Z,27.70
2018-03-25T02:23:16.958Z,28.50
2018-03-25T02:24:16.911Z,28.50
2018-03-25T02:25:16.900Z,28.50
2018-03-25T02:26:16.892Z,28.60
2018-03-25T02:27:16.887Z,28.10
2018-03-25T02:28:16.875Z,28.40
2018-03-25T02:29:16.868Z,27.80
2018-03-25T02:30:16.867Z,28.70
2018-03-25T02:31:16.853Z,28.00
2018-03-25T02:32:16.844Z,28.20
2018-03-25T02:33:16.838Z,27.90
2018-03-25T02:34:16.833Z,28.00
2018-03-25T02:35:16.822Z,29.20
2018-03-25T02:36:16.811Z,29.10
2018-03-25T02:37:16.804Z,28.50
2018-03-25T02:38:16.796Z,29.10
2018-03-25T02:39:16.787Z,28.20
2018-03-25T02:40:16.779Z,29.80
2018-03-25T02:41:16.774Z,28.70
2018-03-25T02:42:16.763Z,28.20
2018-03-25T02:43:16.754Z,28.90
2018-03-25T02:44:16.747Z,29.10
2018-03-25T02:45:16.741Z,29.30
2018-03-25T02:46:16.731Z,28.90
2018-03-25T02:47:16.723Z,28.60
2018-03-25T02:48:16.752Z,28.40
2018-03-25T02:49:16.707Z,28.90
2018-03-25T02:50:16.698Z,28.60
2018-03-25T02:51:16.691Z,29.40
2018-03-25T02:52:16.688Z,29.60
2018-03-25T02:53:16.674Z,28.20
2018-03-25T02:54:16.684Z,29.50
2018-03-25T02:55:16.657Z,28.60
2018-03-25T02:56:16.649Z,28.50
2018-03-25T02:57:16.644Z,28.10
2018-03-25T02:58:16.634Z,28.30
2018-03-25T02:59:16.625Z,29.00
2018-03-25T03:00:16.618Z,27.60
2018-03-25T03:01:16.611Z,28.60
2018-03-25T03:02:16.657Z,28.10
2018-03-25T03:03:16.595Z,28.10
2018-03-25T03:04:16.586Z,27.70
2018-03-25T03:05:16.578Z,28.30
2018-03-25T03:06:16.575Z,26.70
2018-03-25T03:07:16.575Z,27.80
2018-03-25T03:08:16.553Z,28.50
2018-03-25T03:09:16.548Z,28.70
2018-03-25T03:10:16.538Z,28.40
2018-03-25T03:11:16.530Z,28.70
2018-03-25T03:12:16.521Z,28.30
2018-03-25T03:13:16.523Z,27.80
2018-03-25T03:14:16.516Z,28.00
2018-03-25T03:15:16.499Z,27.50
2018-03-25T03:16:16.491Z,27.90
2018-03-25T03:17:16.484Z,27.70
2018-03-25T03:18:16.483Z,27.30
2018-03-25T03:19:16.466Z,28.20
2018-03-25T03:20:16.458Z,27.20
2018-03-25T03:21:16.451Z,27.50
2018-03-25T03:22:16.444Z,28.90
2018-03-25T03:23:16.436Z,27.70
2018-03-25T03:24:16.428Z,27.80
2018-03-25T03:25:16.430Z,27.50
2018-03-25T03:26:16.413Z,27.60
2018-03-25T03:27:16.406Z,27.50
2018-03-25T03:28:16.397Z,26.90
2018-03-25T03:29:16.389Z,28.00
2018-03-25T03:30:16.383Z,27.90
2018-03-25T03:31:16.385Z,27.90
2018-03-25T03:32:16.365Z,27.40
2018-03-25T03:33:16.358Z,27.30
2018-03-25T03:34:16.356Z,27.50
2018-03-25T03:35:16.341Z,27.60
2018-03-25T03:36:16.332Z,27.70
2018-03-25T03:37:16.326Z,28.60
2018-03-25T03:38:16.318Z,27.30
2018-03-25T03:39:16.309Z,28.00
2018-03-25T03:40:16.302Z,28.90
2018-03-25T03:41:16.294Z,28.00
2018-03-25T03:42:16.284Z,28.10
2018-03-25T03:43:16.281Z,28.00
2018-03-25T03:44:16.269Z,28.80
2018-03-25T03:45:16.262Z,27.40
2018-03-25T03:46:16.256Z,27.50
2018-03-25T03:47:16.248Z,26.90
2018-03-25T03:48:16.237Z,28.00
2018-03-25T03:49:16.231Z,28.20
2018-03-25T03:50:16.240Z,27.60
2018-03-25T03:51:16.211Z,28.50
2018-03-25T03:52:16.205Z,28.90
2018-03-25T03:53:16.202Z,28.20
2018-03-25T03:54:16.192Z,27.50
2018-03-25T03:55:16.181Z,27.50
2018-03-25T03:56:16.173Z,28.80
2018-03-25T03:57:16.165Z,28.20
2018-03-25T03:58:16.157Z,27.40
2018-03-25T03:59:16.150Z,27.90
2018-03-25T04:00:16.140Z,28.90
2018-03-25T04:01:16.134Z,28.80
2018-03-25T04:02:16.124Z,29.00
2018-03-25T04:03:16.116Z,28.70
2018-03-25T04:04:16.128Z,28.40
2018-03-25T04:05:16.129Z,29.50
2018-03-25T04:06:16.092Z,28.60
2018-03-25T04:07:16.084Z,29.00
2018-03-25T04:08:16.075Z,29.50
2018-03-25T04:09:16.077Z,29.00
2018-03-25T04:10:16.060Z,29.50
2018-03-25T04:11:16.051Z,29.30
2018-03-25T04:12:16.043Z,29.40
2018-03-25T04:13:16.036Z,28.80
2018-03-25T04:14:16.027Z,29.00
2018-03-25T04:15:16.018Z,28.80
2018-03-25T04:16:16.010Z,28.90
2018-03-25T04:17:16.003Z,28.10
2018-03-25T04:18:15.997Z,28.00
2018-03-25T04:19:15.986Z,28.60
2018-03-25T04:20:15.976Z,29.50
2018-03-25T04:21:15.969Z,29.40
2018-03-25T04:22:15.962Z,29.60
2018-03-25T04:23:15.954Z,29.50
2018-03-25T04:24:15.959Z,27.90
2018-03-25T04:25:15.937Z,29.30
2018-03-25T04:26:15.929Z,29.90
2018-03-25T04:27:15.920Z,29.10
2018-03-25T04:28:15.913Z,29.30
2018-03-25T04:29:15.905Z,29.20
2018-03-25T04:30:15.898Z,29.00
2018-03-25T04:31:15.888Z,28.50
2018-03-25T04:32:15.881Z,28.70
2018-03-25T04:33:15.876Z,29.70
2018-03-25T04:34:15.865Z,29.50
2018-03-25T04:35:15.865Z,29.40
2018-03-25T04:36:15.849Z,29.20
2018-03-25T04:37:15.847Z,29.50
2018-03-25T04:38:15.834Z,29.10
2018-03-25T04:39:15.826Z,29.80
2018-03-25T04:40:15.817Z,28.40
2018-03-25T04:41:15.810Z,28.60
2018-03-25T04:42:15.804Z,29.30
2018-03-25T04:43:15.794Z,28.40
2018-03-25T04:44:15.787Z,27.90
2018-03-25T04:45:15.781Z,28.50
2018-03-25T04:46:15.773Z,28.70
2018-03-25T04:47:15.765Z,29.40
2018-03-25T04:48:15.756Z,28.60
2018-03-25T04:49:15.751Z,28.30
2018-03-25T04:50:15.743Z,28.70
2018-03-25T04:51:15.734Z,29.50
2018-03-25T04:52:15.726Z,30.60
2018-03-25T04:53:15.719Z,30.40
2018-03-25T04:54:15.716Z,29.60
2018-03-25T04:55:15.704Z,29.90
2018-03-25T04:56:15.696Z,29.50
2018-03-25T04:57:15.688Z,29.60
2018-03-25T04:58:15.687Z,29.60
2018-03-25T04:59:15.691Z,30.70
2018-03-25T05:00:15.664Z,29.10
2018-03-25T05:01:15.659Z,29.70
2018-03-25T05:02:15.663Z,30.00
2018-03-25T05:03:15.642Z,30.70
2018-03-25T05:04:15.634Z,30.00
2018-03-25T05:05:15.636Z,30.10
2018-03-25T05:06:15.636Z,29.90
2018-03-25T05:07:15.613Z,30.60
2018-03-25T05:08:15.605Z,30.30
2018-03-25T05:09:15.596Z,29.70
2018-03-25T05:10:15.590Z,30.00
2018-03-25T05:11:15.583Z,30.00
2018-03-25T05:12:15.580Z,30.40
2018-03-25T05:13:15.567Z,29.40
2018-03-25T05:14:15.561Z,29.90
2018-03-25T05:15:15.553Z,30.50
2018-03-25T05:16:15.544Z,29.60
2018-03-25T05:17:15.537Z,30.20
2018-03-25T05:18:15.530Z,29.80
2018-03-25T05:19:15.526Z,29.70
2018-03-25T05:20:15.514Z,29.30
2018-03-25T05:21:15.506Z,29.40
2018-03-25T05:22:15.500Z,30.00
2018-03-25T05:23:15.491Z,30.30
2018-03-25T05:24:15.484Z,29.30
2018-03-25T05:25:15.477Z,29.90
2018-03-25T05:26:15.469Z,30.30
2018-03-25T05:27:15.462Z,29.40
2018-03-25T05:28:15.458Z,29.10
2018-03-25T05:29:15.462Z,30.20
2018-03-25T05:30:15.440Z,30.00
2018-03-25T05:31:15.437Z,29.50
2018-03-25T05:32:15.427Z,29.60
2018-03-25T05:33:15.419Z,30.30
2018-03-25T05:34:15.412Z,30.90
2018-03-25T05:35:15.402Z,31.00
2018-03-25T05:36:15.395Z,29.50
2018-03-25T05:37:15.388Z,29.80
2018-03-25T05:38:15.380Z,28.80
2018-03-25T05:39:15.373Z,29.60
2018-03-25T05:40:15.365Z,29.50
2018-03-25T05:41:15.358Z,30.70
2018-03-25T05:42:15.351Z,31.50
2018-03-25T05:43:15.344Z,30.10
2018-03-25T05:44:15.338Z,30.30
2018-03-25T05:45:15.328Z,29.70
2018-03-25T05:46:15.320Z,29.80
2018-03-25T05:47:15.323Z,30.10
2018-03-25T05:48:15.306Z,30.00
2018-03-25T05:49:15.299Z,29.20
2018-03-25T05:50:15.293Z,29.70
2018-03-25T05:51:15.284Z,28.60
2018-03-25T05:52:15.277Z,29.90
2018-03-25T05:53:15.269Z,28.90
2018-03-25T05:54:15.263Z,28.60
2018-03-25T05:55:15.255Z,29.70
2018-03-25T05:56:15.248Z,29.60
2018-03-25T05:57:15.243Z,29.50
2018-03-25T05:58:15.234Z,30.10
2018-03-25T05:59:15.227Z,30.10
2018-03-25T06:00:15.218Z,29.70
2018-03-25T06:01:15.215Z,29.40
2018-03-25T06:02:15.204Z,29.90
2018-03-25T06:03:15.206Z,30.30
2018-03-25T06:04:15.188Z,30.00
2018-03-25T06:05:15.184Z,30.00
2018-03-25T06:06:15.175Z,29.90
2018-03-25T06:07:15.166Z,30.80
2018-03-25T06:08:15.159Z,30.40
2018-03-25T06:09:15.151Z,28.50
2018-03-25T06:10:15.146Z,29.70
2018-03-25T06:11:15.138Z,30.10
2018-03-25T06:12:15.130Z,29.60
2018-03-25T06:13:15.272Z,29.30
2018-03-25T06:14:15.164Z,30.30
2018-03-25T06:15:15.107Z,30.70
2018-03-25T06:16:15.100Z,30.70
2018-03-25T06:17:15.094Z,30.20
2018-03-25T06:18:15.087Z,29.80
2018-03-25T06:19:15.079Z,30.10
2018-03-25T06:20:15.071Z,30.40
2018-03-25T06:21:15.066Z,29.70
2018-03-25T06:22:15.059Z,30.40
2018-03-25T06:23:15.051Z,30.30
2018-03-25T06:24:15.045Z,30.20
2018-03-25T06:25:15.037Z,31.00
2018-03-25T06:26:15.031Z,30.50
2018-03-25T06:27:15.023Z,29.70
2018-03-25T06:28:15.016Z,30.10
2018-03-25T06:29:15.010Z,30.90
2018-03-25T06:30:15.003Z,30.50
2018-03-25T06:31:14.996Z,30.90
2018-03-25T06:32:14.988Z,30.30
2018-03-25T06:33:14.984Z,31.20
2018-03-25T06:34:14.974Z,30.60
2018-03-25T06:35:14.970Z,30.80
2018-03-25T06:36:14.959Z,30.30
2018-03-25T06:37:14.953Z,30.00
2018-03-25T06:38:14.949Z,31.30
2018-03-25T06:39:14.956Z,30.30
2018-03-25T06:40:14.932Z,30.80
2018-03-25T06:41:14.926Z,30.40
2018-03-25T06:42:14.919Z,31.30
2018-03-25T06:43:14.910Z,30.90
2018-03-25T06:44:14.904Z,30.80
2018-03-25T06:45:14.896Z,29.80
2018-03-25T06:46:14.890Z,29.10
2018-03-25T06:47:14.902Z,30.40
2018-03-25T06:48:14.876Z,30.50
2018-03-25T06:49:14.876Z,30.70
2018-03-25T06:50:14.862Z,29.80
2018-03-25T06:51:14.854Z,31.20
2018-03-25T06:52:14.848Z,30.70
2018-03-25T06:53:14.842Z,30.80
2018-03-25T06:54:14.890Z,31.00
2018-03-25T06:55:14.827Z,30.50
2018-03-25T06:56:14.819Z,30.00
2018-03-25T06:57:14.814Z,30.90
2018-03-25T06:58:14.827Z,30.70
2018-03-25T06:59:14.826Z,31.00
2018-03-25T07:00:14.792Z,30.70
2018-03-25T07:01:14.786Z,30.60
2018-03-25T07:02:14.782Z,30.20
2018-03-25T07:03:14.771Z,29.60
2018-03-25T07:04:14.764Z,30.90
2018-03-25T07:05:14.780Z,31.20
2018-03-25T07:06:14.761Z,31.10
2018-03-25T07:07:14.742Z,30.60
2018-03-25T07:08:14.738Z,30.80
2018-03-25T07:09:14.730Z,31.30
2018-03-25T07:10:14.723Z,31.00
2018-03-25T07:11:14.715Z,31.00
2018-03-25T07:12:14.709Z,31.40
2018-03-25T07:13:14.712Z,30.90
2018-03-25T07:14:14.695Z,31.50
2018-03-25T07:15:14.687Z,30.80
2018-03-25T07:16:14.682Z,30.60
2018-03-25T07:17:14.675Z,31.30
2018-03-25T07:18:14.671Z,32.10
2018-03-25T07:19:14.962Z,31.20
2018-03-25T07:20:14.655Z,30.80
2018-03-25T07:21:14.658Z,31.90
2018-03-25T07:22:14.646Z,31.30
2018-03-25T07:23:14.635Z,31.30
2018-03-25T07:24:14.629Z,31.80
2018-03-25T07:25:14.622Z,31.50
2018-03-25T07:26:14.617Z,30.70
2018-03-25T07:27:14.612Z,30.90
2018-03-25T07:28:14.603Z,30.80
2018-03-25T07:29:14.598Z,30.50
2018-03-25T07:30:14.620Z,31.70
2018-03-25T07:31:14.588Z,31.40
2018-03-25T07:32:14.585Z,30.60
2018-03-25T07:33:14.572Z,31.50
2018-03-25T07:34:14.566Z,31.60
2018-03-25T07:35:14.560Z,31.40
2018-03-25T07:36:14.553Z,32.30
2018-03-25T07:37:14.548Z,32.20
2018-03-25T07:38:14.542Z,31.60
2018-03-25T07:39:14.540Z,31.50
2018-03-25T07:40:14.527Z,34.60
2018-03-25T07:41:14.523Z,32.20
2018-03-25T07:42:14.518Z,31.10
2018-03-25T07:43:15.067Z,32.40
2018-03-25T07:44:14.504Z,32.70
2018-03-25T07:45:14.500Z,32.70
2018-03-25T07:46:14.495Z,32.10
2018-03-25T07:47:14.487Z,32.40
2018-03-25T07:48:14.481Z,31.50
2018-03-25T07:49:14.475Z,32.20
2018-03-25T07:50:14.477Z,31.90
2018-03-25T07:51:14.465Z,31.60
2018-03-25T07:52:14.457Z,31.80
2018-03-25T07:53:14.452Z,32.20
2018-03-25T07:54:14.446Z,32.80
2018-03-25T07:55:14.440Z,32.10
2018-03-25T07:56:14.435Z,31.60
2018-03-25T07:57:14.429Z,31.80
2018-03-25T07:58:14.423Z,31.30
2018-03-25T07:59:14.418Z,31.30
2018-03-25T08:00:14.415Z,32.20
2018-03-25T08:01:14.406Z,31.20
2018-03-25T08:02:14.401Z,32.00
2018-03-25T08:03:14.395Z,31.20
2018-03-25T08:04:14.389Z,31.60
2018-03-25T08:05:14.383Z,32.40
2018-03-25T08:06:14.379Z,32.60
2018-03-25T08:07:14.372Z,32.40
2018-03-25T08:08:14.388Z,33.50
2018-03-25T08:09:14.422Z,30.90
2018-03-25T08:10:14.356Z,30.50
2018-03-25T08:11:14.359Z,29.90
2018-03-25T08:12:14.345Z,31.60
2018-03-25T08:13:14.339Z,31.30
2018-03-25T08:14:14.334Z,32.80
2018-03-25T08:15:14.328Z,30.90
2018-03-25T08:16:14.337Z,31.70
2018-03-25T08:17:14.319Z,31.50
2018-03-25T08:18:14.311Z,32.60
2018-03-25T08:19:14.306Z,31.40
2018-03-25T08:20:14.302Z,31.50
2018-03-25T08:21:14.296Z,31.10
2018-03-25T08:22:14.292Z,32.20
2018-03-25T08:23:14.285Z,31.00
2018-03-25T08:24:14.280Z,30.90
2018-03-25T08:25:14.275Z,31.50
2018-03-25T08:26:14.269Z,30.50
2018-03-25T08:27:14.263Z,31.20
2018-03-25T08:28:14.258Z,30.80
2018-03-25T08:29:14.254Z,31.00
2018-03-25T08:30:14.249Z,32.00
2018-03-25T08:31:14.243Z,31.30
2018-03-25T08:32:14.237Z,31.60
2018-03-25T08:33:14.232Z,31.00
2018-03-25T08:34:14.227Z,30.80
2018-03-25T08:35:14.222Z,30.70
2018-03-25T08:36:14.222Z,31.30
2018-03-25T08:37:14.212Z,32.30
2018-03-25T08:38:14.206Z,30.50
2018-03-25T08:39:14.201Z,31.20
2018-03-25T08:40:14.201Z,32.30
2018-03-25T08:41:14.190Z,30.60
2018-03-25T08:42:14.188Z,31.50
2018-03-25T08:43:14.181Z,32.20
2018-03-25T08:44:14.177Z,33.60
2018-03-25T08:45:14.172Z,31.00
2018-03-25T08:46:14.166Z,31.00
2018-03-25T08:47:14.161Z,31.40
2018-03-25T08:48:14.156Z,30.30
2018-03-25T08:49:14.151Z,31.90
2018-03-25T08:50:14.147Z,31.20
2018-03-25T08:51:14.145Z,32.10
2018-03-25T08:52:14.135Z,33.10
2018-03-25T08:53:14.132Z,31.90
2018-03-25T08:54:14.128Z,31.30
2018-03-25T08:55:14.228Z,31.30
2018-03-25T08:56:14.116Z,31.70
2018-03-25T08:57:14.112Z,33.30
2018-03-25T08:58:14.107Z,31.60
2018-03-25T08:59:14.101Z,30.80
2018-03-25T09:00:14.097Z,31.20
2018-03-25T09:01:14.094Z,31.00
2018-03-25T09:02:14.088Z,31.00
2018-03-25T09:03:14.083Z,30.60
2018-03-25T09:04:14.078Z,31.50
2018-03-25T09:05:14.074Z,30.90
2018-03-25T09:06:14.069Z,31.70
2018-03-25T09:07:14.314Z,31.40
2018-03-25T09:08:14.063Z,31.20
2018-03-25T09:09:14.058Z,30.60
2018-03-25T09:10:14.051Z,31.40
2018-03-25T09:11:14.046Z,30.40
2018-03-25T09:12:14.042Z,31.70
2018-03-25T09:13:14.039Z,31.80
2018-03-25T09:14:14.034Z,30.90
2018-03-25T09:15:14.033Z,31.60
2018-03-25T09:16:14.028Z,31.50
2018-03-25T09:17:14.021Z,31.30
2018-03-25T09:18:14.023Z,30.90
2018-03-25T09:19:14.011Z,31.90
2018-03-25T09:20:14.007Z,31.90
2018-03-25T09:21:14.005Z,32.50
2018-03-25T09:22:14.005Z,32.00
2018-03-25T09:23:13.993Z,32.10
2018-03-25T09:24:13.990Z,32.00
2018-03-25T09:25:13.986Z,31.40
2018-03-25T09:26:13.982Z,31.10
2018-03-25T09:27:13.977Z,31.70
2018-03-25T09:28:13.975Z,32.70
2018-03-25T09:29:13.976Z,32.50
2018-03-25T09:30:14.021Z,31.00
2018-03-25T09:31:14.062Z,31.90
2018-03-25T09:32:13.957Z,32.40
2018-03-25T09:33:13.953Z,33.40
2018-03-25T09:34:13.949Z,33.90
2018-03-25T09:35:13.944Z,34.40
2018-03-25T09:36:13.942Z,32.50
2018-03-25T09:37:13.974Z,32.90
2018-03-25T09:38:13.933Z,34.10
2018-03-25T09:39:13.961Z,34.40
2018-03-25T09:40:13.934Z,33.90
2018-03-25T09:41:13.929Z,35.20
2018-03-25T09:42:13.929Z,33.10
2018-03-25T09:43:13.937Z,33.70
2018-03-25T09:44:13.908Z,33.50
2018-03-25T09:45:13.906Z,35.00
2018-03-25T09:46:13.904Z,34.80
2018-03-25T09:47:13.901Z,33.70
2018-03-25T09:48:13.894Z,35.10
2018-03-25T09:49:13.889Z,34.30
2018-03-25T09:50:13.890Z,35.10
2018-03-25T09:51:13.883Z,35.40
2018-03-25T09:52:13.881Z,35.70
2018-03-25T09:53:13.876Z,36.80
2018-03-25T09:54:13.872Z,36.00
2018-03-25T09:55:13.867Z,36.40
2018-03-25T09:56:13.864Z,35.70
2018-03-25T09:57:13.859Z,36.80
2018-03-25T09:58:13.856Z,35.70
2018-03-25T09:59:13.853Z,35.60
2018-03-25T10:00:13.851Z,36.00
2018-03-25T10:01:13.845Z,37.10
2018-03-25T10:02:13.841Z,36.60
2018-03-25T10:03:13.837Z,36.00
2018-03-25T10:04:13.833Z,36.30
2018-03-25T10:05:13.830Z,36.40
2018-03-25T10:06:13.826Z,35.40
2018-03-25T10:07:13.827Z,36.60
2018-03-25T10:08:13.818Z,35.80
2018-03-25T10:09:13.815Z,36.80
2018-03-25T10:10:13.811Z,37.20
2018-03-25T10:11:13.806Z,37.80
2018-03-25T10:12:13.803Z,37.20
2018-03-25T10:13:13.800Z,37.70
2018-03-25T10:14:13.801Z,36.90
2018-03-25T10:15:13.791Z,36.90
2018-03-25T10:16:13.788Z,37.30
2018-03-25T10:17:13.784Z,37.70
2018-03-25T10:18:13.781Z,36.70
2018-03-25T10:19:13.776Z,37.70
2018-03-25T10:20:13.774Z,37.30
2018-03-25T10:21:13.771Z,36.70
2018-03-25T10:22:13.768Z,36.50
2018-03-25T10:23:13.763Z,37.30
2018-03-25T10:24:13.760Z,36.60
2018-03-25T10:25:13.757Z,36.50
2018-03-25T10:26:13.754Z,35.90
2018-03-25T10:27:13.750Z,36.90
2018-03-25T10:28:13.754Z,36.40
2018-03-25T10:29:13.744Z,37.30
2018-03-25T10:30:13.746Z,38.00
2018-03-25T10:31:13.737Z,37.90
2018-03-25T10:32:13.734Z,38.60
2018-03-25T10:33:13.732Z,38.30
2018-03-25T10:34:13.729Z,38.30
2018-03-25T10:35:13.725Z,39.80
2018-03-25T10:36:13.724Z,39.00
2018-03-25T10:37:13.720Z,37.90
2018-03-25T10:38:13.719Z,37.80
2018-03-25T10:39:13.715Z,39.40
2018-03-25T10:40:13.712Z,38.90
2018-03-25T10:41:13.710Z,39.40
2018-03-25T10:42:13.713Z,39.30
2018-03-25T10:43:13.704Z,38.50
2018-03-25T10:44:13.704Z,37.30
2018-03-25T10:45:13.702Z,38.80
2018-03-25T10:46:13.702Z,38.80
2018-03-25T10:47:13.698Z,40.10
2018-03-25T10:48:13.696Z,39.10
2018-03-25T10:49:13.693Z,38.30
2018-03-25T10:50:13.693Z,39.10
2018-03-25T10:51:13.690Z,37.70
2018-03-25T10:52:13.689Z,38.40
2018-03-25T10:53:13.688Z,37.50
2018-03-25T10:54:13.688Z,36.80
2018-03-25T10:55:13.685Z,38.20
2018-03-25T10:56:13.683Z,37.10
2018-03-25T10:57:13.682Z,36.20
2018-03-25T10:58:13.681Z,34.70
2018-03-25T10:59:13.679Z,36.10
2018-03-25T11:00:13.679Z,33.50
2018-03-25T11:01:13.777Z,34.40
2018-03-25T11:02:13.680Z,38.50
2018-03-25T11:03:13.675Z,36.10
2018-03-25T11:04:13.678Z,38.10
2018-03-25T11:05:13.673Z,36.60
2018-03-25T11:06:13.671Z,37.20
2018-03-25T11:07:13.669Z,36.80
2018-03-25T11:08:13.667Z,34.80
2018-03-25T11:09:13.667Z,34.70
2018-03-25T11:10:13.678Z,36.30
2018-03-25T11:11:13.664Z,35.50
2018-03-25T11:12:13.665Z,33.70
2018-03-25T11:13:13.664Z,34.60
2018-03-25T11:14:13.662Z,34.50
2018-03-25T11:15:13.660Z,35.90
2018-03-25T11:16:13.658Z,37.20
2018-03-25T11:17:13.658Z,36.90
2018-03-25T11:18:13.657Z,34.30
2018-03-25T11:19:13.655Z,34.70
2018-03-25T11:20:13.653Z,35.90
2018-03-25T11:21:13.653Z,37.90
2018-03-25T11:22:13.651Z,36.70
2018-03-25T11:23:13.649Z,36.60
2018-03-25T11:24:13.650Z,36.90
2018-03-25T11:25:13.648Z,36.10
2018-03-25T11:26:13.660Z,36.60
2018-03-25T11:27:13.645Z,36.80
2018-03-25T11:28:13.647Z,34.90
2018-03-25T11:29:13.645Z,35.60
2018-03-25T11:30:13.643Z,35.30
2018-03-25T11:31:13.641Z,34.70
2018-03-25T11:32:13.642Z,35.00
2018-03-25T11:33:13.640Z,34.60
2018-03-25T11:34:13.639Z,36.10
2018-03-25T11:35:13.637Z,35.20
2018-03-25T11:36:13.636Z,31.90
2018-03-25T11:37:13.634Z,32.70
2018-03-25T11:38:13.634Z,32.80
2018-03-25T11:39:13.634Z,32.10
2018-03-25T11:40:13.647Z,33.40
2018-03-25T11:41:13.634Z,30.30
2018-03-25T11:42:13.629Z,24.40
2018-03-25T11:43:13.628Z,15.30
2018-03-25T11:44:13.626Z,33.30
2018-03-25T11:45:13.626Z,31.60
2018-03-25T11:46:13.625Z,32.30
2018-03-25T11:47:13.623Z,31.10
2018-03-25T11:48:13.622Z,30.90
2018-03-25T11:49:13.622Z,30.60
2018-03-25T11:50:13.621Z,26.20
2018-03-25T11:51:13.621Z,27.80
2018-03-25T11:52:13.624Z,29.70
2018-03-25T11:53:13.670Z,28.00
2018-03-25T11:54:13.626Z,27.90
2018-03-25T11:55:13.621Z,28.10
2018-03-25T11:56:13.621Z,28.10
2018-03-25T11:57:13.622Z,28.30
2018-03-25T11:58:13.622Z,28.50
2018-03-25T11:59:13.621Z,26.80
2018-03-25T12:00:13.625Z,24.60
2018-03-25T12:01:13.622Z,26.40
2018-03-25T12:02:13.624Z,29.60
2018-03-25T12:03:13.622Z,30.00
2018-03-25T12:04:13.623Z,29.50
2018-03-25T12:05:13.624Z,29.30
2018-03-25T12:06:13.624Z,29.00
2018-03-25T12:07:13.624Z,27.60
2018-03-25T12:08:13.625Z,27.10
2018-03-25T12:09:13.626Z,25.50
2018-03-25T12:10:13.626Z,22.70
2018-03-25T12:11:13.676Z,22.30
2018-03-25T12:12:13.628Z,22.00
2018-03-25T12:13:13.629Z,22.60
2018-03-25T12:14:13.641Z,23.10
2018-03-25T12:15:13.633Z,23.30
2018-03-25T12:16:13.634Z,23.20
2018-03-25T12:17:13.633Z,22.10
2018-03-25T12:18:13.633Z,20.20
2018-03-25T12:19:13.634Z,21.70
2018-03-25T12:20:13.639Z,22.80
2018-03-25T12:21:13.643Z,23.60
2018-03-25T12:22:13.639Z,24.50
2018-03-25T12:23:13.640Z,23.20
2018-03-25T12:24:13.641Z,23.70
2018-03-25T12:25:13.643Z,24.70
2018-03-25T12:26:13.645Z,24.70
2018-03-25T12:27:13.653Z,24.20
2018-03-25T12:28:13.651Z,26.00
2018-03-25T12:29:13.651Z,24.30
2018-03-25T12:30:13.653Z,24.90
2018-03-25T12:31:13.755Z,25.40
2018-03-25T12:32:13.669Z,26.50
2018-03-25T12:33:13.702Z,27.10
2018-03-25T12:34:13.663Z,27.20
2018-03-25T12:35:13.664Z,26.90
2018-03-25T12:36:13.666Z,28.90
2018-03-25T12:37:13.668Z,27.50
2018-03-25T12:38:13.671Z,28.30
2018-03-25T12:39:13.673Z,27.10
2018-03-25T12:40:13.675Z,28.10
2018-03-25T12:41:13.677Z,25.60
2018-03-25T12:42:13.679Z,24.60
2018-03-25T12:43:13.680Z,23.80
2018-03-25T12:44:13.682Z,25.60
2018-03-25T12:45:13.684Z,25.90
2018-03-25T12:46:13.685Z,24.40
2018-03-25T12:47:13.685Z,25.60
2018-03-25T12:48:13.686Z,24.40
2018-03-25T12:49:13.687Z,24.50
2018-03-25T12:50:13.693Z,25.00
2018-03-25T12:51:13.689Z,25.90
2018-03-25T12:52:13.702Z,25.20